sensor_id;sensor_type;location;lat;lon;timestamp;pressure;altitude;pressure_sealevel;temperature;humidity
18697;BME280;22617;43.690;27.956;2023-08-01T00:00:47;98367.38;;;19.14;83.07
18697;BME280;22617;43.690;27.956;2023-08-01T00:05:52;98367.13;;;19.01;83.11
18697;BME280;22617;43.690;27.956;2023-08-01T00:10:57;98372.47;;;19.00;83.45
18697;BME280;22617;43.690;27.956;2023-08-01T00:16:00;98361.78;;;19.03;83.44
18697;BME280;22617;43.690;27.956;2023-08-01T00:21:10;98370.59;;;18.85;82.65
18697;BME280;22617;43.690;27.956;2023-08-01T00:26:13;98371.84;;;18.76;82.83
18697;BME280;22617;43.690;27.956;2023-08-01T00:31:17;98375.63;;;18.70;82.88
18697;BME280;22617;43.690;27.956;2023-08-01T00:36:22;98368.06;;;18.63;83.55
18697;BME280;22617;43.690;27.956;2023-08-01T00:41:25;98379.34;;;18.66;83.32
18697;BME280;22617;43.690;27.956;2023-08-01T00:46:29;98366.44;;;18.60;83.74
18697;BME280;22617;43.690;27.956;2023-08-01T00:51:34;98372.25;;;18.48;83.31
18697;BME280;22617;43.690;27.956;2023-08-01T00:56:39;98360.16;;;18.63;83.35
18697;BME280;22617;43.690;27.956;2023-08-01T01:01:43;98350.25;;;18.68;82.44
18697;BME280;22617;43.690;27.956;2023-08-01T01:06:52;98356.16;;;18.54;82.29
18697;BME280;22617;43.690;27.956;2023-08-01T01:11:56;98357.28;;;18.49;83.28
18697;BME280;22617;43.690;27.956;2023-08-01T01:16:59;98345.75;;;18.70;83.31
18697;BME280;22617;43.690;27.956;2023-08-01T01:22:06;98341.59;;;18.83;82.88
18697;BME280;22617;43.690;27.956;2023-08-01T01:27:15;98340.75;;;18.64;85.43
18697;BME280;22617;43.690;27.956;2023-08-01T01:32:20;98341.91;;;18.58;85.91
18697;BME280;22617;43.690;27.956;2023-08-01T01:37:25;98334.19;;;18.72;85.80
18697;BME280;22617;43.690;27.956;2023-08-01T01:42:29;98337.47;;;18.59;84.64
18697;BME280;22617;43.690;27.956;2023-08-01T01:47:33;98332.19;;;18.59;84.20
18697;BME280;22617;43.690;27.956;2023-08-01T01:52:38;98336.34;;;18.64;84.17
18697;BME280;22617;43.690;27.956;2023-08-01T01:57:41;98345.59;;;18.54;84.02
18697;BME280;22617;43.690;27.956;2023-08-01T02:02:45;98342.50;;;18.45;83.55
18697;BME280;22617;43.690;27.956;2023-08-01T02:07:50;98344.78;;;18.34;84.13
18697;BME280;22617;43.690;27.956;2023-08-01T02:12:53;98339.00;;;18.25;84.37
18697;BME280;22617;43.690;27.956;2023-08-01T02:17:58;98343.03;;;18.14;84.06
18697;BME280;22617;43.690;27.956;2023-08-01T02:23:03;98342.28;;;18.12;84.61
18697;BME280;22617;43.690;27.956;2023-08-01T02:28:07;98343.91;;;18.14;84.21
18697;BME280;22617;43.690;27.956;2023-08-01T02:33:11;98341.81;;;18.02;83.38
18697;BME280;22617;43.690;27.956;2023-08-01T02:38:16;98348.53;;;18.09;83.68
18697;BME280;22617;43.690;27.956;2023-08-01T02:43:19;98349.81;;;18.19;83.50
18697;BME280;22617;43.690;27.956;2023-08-01T02:48:23;98358.09;;;18.12;86.05
18697;BME280;22617;43.690;27.956;2023-08-01T02:53:28;98359.41;;;18.22;86.57
18697;BME280;22617;43.690;27.956;2023-08-01T02:58:31;98360.66;;;18.32;86.12
18697;BME280;22617;43.690;27.956;2023-08-01T03:03:35;98347.56;;;18.30;85.21
18697;BME280;22617;43.690;27.956;2023-08-01T03:08:41;98351.78;;;18.35;84.21
18697;BME280;22617;43.690;27.956;2023-08-01T03:13:45;98360.38;;;18.19;83.47
18697;BME280;22617;43.690;27.956;2023-08-01T03:18:48;98362.34;;;18.14;83.63
18697;BME280;22617;43.690;27.956;2023-08-01T03:23:53;98363.50;;;18.27;83.56
18697;BME280;22617;43.690;27.956;2023-08-01T03:28:57;98356.75;;;18.22;83.85
18697;BME280;22617;43.690;27.956;2023-08-01T03:34:00;98354.13;;;18.22;84.03
18697;BME280;22617;43.690;27.956;2023-08-01T03:39:05;98361.28;;;18.18;85.04
18697;BME280;22617;43.690;27.956;2023-08-01T03:44:12;98368.28;;;18.19;87.72
18697;BME280;22617;43.690;27.956;2023-08-01T03:49:16;98362.13;;;18.39;87.39
18697;BME280;22617;43.690;27.956;2023-08-01T03:54:21;98371.38;;;18.48;87.79
18697;BME280;22617;43.690;27.956;2023-08-01T03:59:25;98380.88;;;18.52;89.03
18697;BME280;22617;43.690;27.956;2023-08-01T04:04:29;98375.06;;;18.64;89.22
18697;BME280;22617;43.690;27.956;2023-08-01T04:09:35;98380.56;;;18.78;89.66
18697;BME280;22617;43.690;27.956;2023-08-01T04:14:40;98385.47;;;18.86;89.58
18697;BME280;22617;43.690;27.956;2023-08-01T04:19:44;98381.75;;;18.90;90.95
18697;BME280;22617;43.690;27.956;2023-08-01T04:24:49;98398.13;;;18.98;92.24
18697;BME280;22617;43.690;27.956;2023-08-01T04:29:54;98394.66;;;18.96;94.11
18697;BME280;22617;43.690;27.956;2023-08-01T04:34:58;98401.81;;;19.12;94.57
18697;BME280;22617;43.690;27.956;2023-08-01T04:40:05;98390.91;;;19.18;95.08
18697;BME280;22617;43.690;27.956;2023-08-01T04:45:09;98393.38;;;19.40;95.07
18697;BME280;22617;43.690;27.956;2023-08-01T04:50:12;98401.31;;;19.40;94.94
18697;BME280;22617;43.690;27.956;2023-08-01T04:55:17;98393.88;;;19.48;94.39
18697;BME280;22617;43.690;27.956;2023-08-01T05:00:21;98404.41;;;19.67;93.54
18697;BME280;22617;43.690;27.956;2023-08-01T05:05:26;98395.31;;;19.73;92.67
18697;BME280;22617;43.690;27.956;2023-08-01T05:10:31;98395.16;;;19.93;92.08
18697;BME280;22617;43.690;27.956;2023-08-01T05:15:34;98393.44;;;20.09;91.30
18697;BME280;22617;43.690;27.956;2023-08-01T05:20:38;98397.66;;;20.29;89.64
18697;BME280;22617;43.690;27.956;2023-08-01T05:25:43;98403.56;;;20.51;88.02
18697;BME280;22617;43.690;27.956;2023-08-01T05:30:46;98404.28;;;20.70;86.66
18697;BME280;22617;43.690;27.956;2023-08-01T05:35:50;98397.78;;;20.92;86.99
18697;BME280;22617;43.690;27.956;2023-08-01T05:40:55;98396.44;;;21.00;86.14
18697;BME280;22617;43.690;27.956;2023-08-01T05:45:58;98388.56;;;21.30;86.26
18697;BME280;22617;43.690;27.956;2023-08-01T05:51:02;98392.69;;;21.36;84.24
18697;BME280;22617;43.690;27.956;2023-08-01T05:56:07;98390.59;;;21.56;82.52
18697;BME280;22617;43.690;27.956;2023-08-01T06:01:11;98381.88;;;21.84;81.21
18697;BME280;22617;43.690;27.956;2023-08-01T06:06:15;98376.88;;;21.94;80.70
18697;BME280;22617;43.690;27.956;2023-08-01T06:11:20;98382.91;;;22.26;80.07
18697;BME280;22617;43.690;27.956;2023-08-01T06:16:23;98375.41;;;22.32;79.23
18697;BME280;22617;43.690;27.956;2023-08-01T06:21:29;98374.84;;;22.41;78.07
18697;BME280;22617;43.690;27.956;2023-08-01T06:26:34;98370.22;;;22.73;77.93
18697;BME280;22617;43.690;27.956;2023-08-01T06:31:38;98373.41;;;22.78;77.09
18697;BME280;22617;43.690;27.956;2023-08-01T06:36:41;98370.16;;;23.01;76.53
18697;BME280;22617;43.690;27.956;2023-08-01T06:41:46;98372.22;;;23.37;73.76
18697;BME280;22617;43.690;27.956;2023-08-01T06:46:50;98373.94;;;23.38;73.93
18697;BME280;22617;43.690;27.956;2023-08-01T06:51:53;98380.03;;;23.80;72.95
18697;BME280;22617;43.690;27.956;2023-08-01T06:56:58;98378.78;;;23.98;72.54
18697;BME280;22617;43.690;27.956;2023-08-01T07:02:03;98374.53;;;23.96;71.99
18697;BME280;22617;43.690;27.956;2023-08-01T07:07:07;98374.06;;;23.89;72.52
18697;BME280;22617;43.690;27.956;2023-08-01T07:12:12;98380.69;;;23.96;71.46
18697;BME280;22617;43.690;27.956;2023-08-01T07:17:16;98384.44;;;24.06;70.65
18697;BME280;22617;43.690;27.956;2023-08-01T07:22:20;98376.03;;;24.63;70.39
18697;BME280;22617;43.690;27.956;2023-08-01T07:27:25;98359.00;;;24.53;69.86
18697;BME280;22617;43.690;27.956;2023-08-01T07:32:28;98369.25;;;25.08;68.69
18697;BME280;22617;43.690;27.956;2023-08-01T07:37:35;98369.47;;;25.52;67.69
18697;BME280;22617;43.690;27.956;2023-08-01T07:42:41;98382.66;;;25.43;66.59
18697;BME280;22617;43.690;27.956;2023-08-01T07:47:45;98377.94;;;26.05;65.59
18697;BME280;22617;43.690;27.956;2023-08-01T07:52:48;98378.41;;;25.16;66.01
18697;BME280;22617;43.690;27.956;2023-08-01T07:57:54;98378.00;;;25.34;66.60
18697;BME280;22617;43.690;27.956;2023-08-01T08:02:57;98381.78;;;25.55;65.20
18697;BME280;22617;43.690;27.956;2023-08-01T08:08:02;98370.66;;;25.72;65.89
18697;BME280;22617;43.690;27.956;2023-08-01T08:13:07;98379.81;;;25.33;65.34
18697;BME280;22617;43.690;27.956;2023-08-01T08:18:11;98380.38;;;25.73;65.71
18697;BME280;22617;43.690;27.956;2023-08-01T08:23:15;98379.59;;;25.36;64.80
18697;BME280;22617;43.690;27.956;2023-08-01T08:28:28;98382.25;;;25.12;65.00
18697;BME280;22617;43.690;27.956;2023-08-01T08:33:32;98379.34;;;25.15;64.60
18697;BME280;22617;43.690;27.956;2023-08-01T08:38:35;98383.72;;;26.23;63.50
18697;BME280;22617;43.690;27.956;2023-08-01T08:43:41;98382.00;;;26.22;63.42
18697;BME280;22617;43.690;27.956;2023-08-01T08:48:45;98373.44;;;25.47;64.13
18697;BME280;22617;43.690;27.956;2023-08-01T08:53:50;98369.41;;;27.02;62.95
18697;BME280;22617;43.690;27.956;2023-08-01T08:58:59;98363.81;;;27.48;59.03
18697;BME280;22617;43.690;27.956;2023-08-01T09:04:02;98364.63;;;27.05;60.01
18697;BME280;22617;43.690;27.956;2023-08-01T09:09:10;98349.50;;;27.38;58.78
18697;BME280;22617;43.690;27.956;2023-08-01T09:14:16;98352.59;;;27.54;57.62
18697;BME280;22617;43.690;27.956;2023-08-01T09:19:21;98351.63;;;27.44;59.07
18697;BME280;22617;43.690;27.956;2023-08-01T09:24:25;98348.13;;;27.00;58.45
18697;BME280;22617;43.690;27.956;2023-08-01T09:29:30;98354.03;;;28.10;57.79
18697;BME280;22617;43.690;27.956;2023-08-01T09:34:34;98348.09;;;28.88;55.61
18697;BME280;22617;43.690;27.956;2023-08-01T09:39:38;98340.16;;;29.56;54.78
18697;BME280;22617;43.690;27.956;2023-08-01T09:44:45;98342.28;;;29.33;53.14
18697;BME280;22617;43.690;27.956;2023-08-01T09:49:49;98341.56;;;28.72;55.67
18697;BME280;22617;43.690;27.956;2023-08-01T09:54:54;98332.81;;;29.77;53.83
18697;BME280;22617;43.690;27.956;2023-08-01T09:59:59;98327.00;;;29.72;53.13
18697;BME280;22617;43.690;27.956;2023-08-01T10:05:13;98320.56;;;28.96;53.60
18697;BME280;22617;43.690;27.956;2023-08-01T10:10:18;98319.59;;;30.12;53.92
18697;BME280;22617;43.690;27.956;2023-08-01T10:15:25;98320.50;;;29.45;52.93
18697;BME280;22617;43.690;27.956;2023-08-01T10:20:30;98330.81;;;29.69;53.27
18697;BME280;22617;43.690;27.956;2023-08-01T10:25:34;98315.84;;;29.67;52.55
18697;BME280;22617;43.690;27.956;2023-08-01T10:30:39;98319.38;;;29.86;53.46
18697;BME280;22617;43.690;27.956;2023-08-01T10:35:43;98320.94;;;28.72;54.52
18697;BME280;22617;43.690;27.956;2023-08-01T10:40:46;98310.56;;;29.08;53.08
18697;BME280;22617;43.690;27.956;2023-08-01T10:46:01;98311.00;;;30.55;51.14
18697;BME280;22617;43.690;27.956;2023-08-01T10:51:05;98303.63;;;30.20;51.71
18697;BME280;22617;43.690;27.956;2023-08-01T10:56:16;98295.47;;;30.40;50.62
18697;BME280;22617;43.690;27.956;2023-08-01T11:01:21;98286.81;;;31.00;48.13
18697;BME280;22617;43.690;27.956;2023-08-01T11:06:24;98285.63;;;31.66;49.10
18697;BME280;22617;43.690;27.956;2023-08-01T11:11:28;98273.16;;;30.84;49.79
18697;BME280;22617;43.690;27.956;2023-08-01T11:16:33;98275.88;;;30.57;50.90
18697;BME280;22617;43.690;27.956;2023-08-01T11:21:37;98275.66;;;30.50;51.28
18697;BME280;22617;43.690;27.956;2023-08-01T11:26:42;98278.34;;;29.75;50.26
18697;BME280;22617;43.690;27.956;2023-08-01T11:31:54;98267.41;;;30.52;51.98
18697;BME280;22617;43.690;27.956;2023-08-01T11:36:59;98255.13;;;31.47;48.49
18697;BME280;22617;43.690;27.956;2023-08-01T11:42:03;98251.19;;;31.77;46.51
18697;BME280;22617;43.690;27.956;2023-08-01T11:47:12;98249.97;;;30.83;47.83
18697;BME280;22617;43.690;27.956;2023-08-01T11:52:23;98245.72;;;29.60;50.27
18697;BME280;22617;43.690;27.956;2023-08-01T11:57:27;98246.38;;;31.10;48.36
18697;BME280;22617;43.690;27.956;2023-08-01T12:02:32;98231.41;;;31.94;46.40
18697;BME280;22617;43.690;27.956;2023-08-01T12:07:36;98233.28;;;30.97;47.54
18697;BME280;22617;43.690;27.956;2023-08-01T12:12:44;98233.19;;;29.88;50.19
18697;BME280;22617;43.690;27.956;2023-08-01T12:17:49;98226.31;;;31.04;49.21
18697;BME280;22617;43.690;27.956;2023-08-01T12:22:53;98219.50;;;31.53;48.27
18697;BME280;22617;43.690;27.956;2023-08-01T12:27:56;98219.25;;;30.58;49.39
18697;BME280;22617;43.690;27.956;2023-08-01T12:33:01;98222.06;;;31.37;50.30
18697;BME280;22617;43.690;27.956;2023-08-01T12:38:05;98209.97;;;31.85;45.74
18697;BME280;22617;43.690;27.956;2023-08-01T12:43:09;98206.31;;;30.35;47.82
18697;BME280;22617;43.690;27.956;2023-08-01T12:48:14;98204.31;;;31.27;46.55
18697;BME280;22617;43.690;27.956;2023-08-01T12:53:18;98192.44;;;31.20;47.44
18697;BME280;22617;43.690;27.956;2023-08-01T12:58:22;98183.28;;;31.30;46.57
18697;BME280;22617;43.690;27.956;2023-08-01T13:03:27;98183.34;;;30.13;47.88
18697;BME280;22617;43.690;27.956;2023-08-01T13:08:32;98177.56;;;29.61;49.00
18697;BME280;22617;43.690;27.956;2023-08-01T13:13:36;98168.34;;;30.65;49.49
18697;BME280;22617;43.690;27.956;2023-08-01T13:18:41;98163.69;;;31.64;47.43
18697;BME280;22617;43.690;27.956;2023-08-01T13:23:48;98157.59;;;31.62;45.92
18697;BME280;22617;43.690;27.956;2023-08-01T13:28:51;98146.94;;;32.12;46.37
18697;BME280;22617;43.690;27.956;2023-08-01T13:33:56;98153.16;;;32.54;47.14
18697;BME280;22617;43.690;27.956;2023-08-01T13:38:59;98144.41;;;31.33;46.67
18697;BME280;22617;43.690;27.956;2023-08-01T13:44:05;98141.25;;;31.89;46.23
18697;BME280;22617;43.690;27.956;2023-08-01T13:49:10;98148.44;;;30.93;46.36
18697;BME280;22617;43.690;27.956;2023-08-01T13:54:15;98130.97;;;31.15;46.44
18697;BME280;22617;43.690;27.956;2023-08-01T13:59:18;98137.59;;;30.22;47.26
18697;BME280;22617;43.690;27.956;2023-08-01T14:04:23;98134.72;;;29.60;48.69
18697;BME280;22617;43.690;27.956;2023-08-01T14:09:27;98132.41;;;29.37;50.15
18697;BME280;22617;43.690;27.956;2023-08-01T14:14:31;98132.69;;;29.81;50.40
18697;BME280;22617;43.690;27.956;2023-08-01T14:19:36;98134.66;;;29.88;49.90
18697;BME280;22617;43.690;27.956;2023-08-01T14:24:39;98121.25;;;30.33;48.00
18697;BME280;22617;43.690;27.956;2023-08-01T14:29:44;98125.59;;;29.80;48.92
18697;BME280;22617;43.690;27.956;2023-08-01T14:34:49;98115.69;;;29.90;48.82
18697;BME280;22617;43.690;27.956;2023-08-01T14:39:53;98113.25;;;30.42;48.48
18697;BME280;22617;43.690;27.956;2023-08-01T14:44:56;98107.22;;;30.75;48.26
18697;BME280;22617;43.690;27.956;2023-08-01T14:50:01;98100.31;;;30.55;47.72
18697;BME280;22617;43.690;27.956;2023-08-01T14:55:06;98108.34;;;30.37;48.46
18697;BME280;22617;43.690;27.956;2023-08-01T15:00:10;98117.81;;;29.50;55.05
18697;BME280;22617;43.690;27.956;2023-08-01T15:05:15;98109.13;;;28.51;58.02
18697;BME280;22617;43.690;27.956;2023-08-01T15:10:19;98107.69;;;28.47;59.03
18697;BME280;22617;43.690;27.956;2023-08-01T15:15:23;98096.09;;;28.18;59.98
18697;BME280;22617;43.690;27.956;2023-08-01T15:20:28;98094.06;;;27.61;61.99
18697;BME280;22617;43.690;27.956;2023-08-01T15:25:31;98093.53;;;27.46;63.06
18697;BME280;22617;43.690;27.956;2023-08-01T15:30:39;98092.31;;;27.29;63.26
18697;BME280;22617;43.690;27.956;2023-08-01T15:35:43;98095.28;;;27.06;63.70
18697;BME280;22617;43.690;27.956;2023-08-01T15:40:47;98092.59;;;26.85;63.86
18697;BME280;22617;43.690;27.956;2023-08-01T15:45:53;98100.31;;;26.35;65.25
18697;BME280;22617;43.690;27.956;2023-08-01T15:50:58;98103.97;;;26.34;65.25
18697;BME280;22617;43.690;27.956;2023-08-01T15:56:03;98106.81;;;26.22;65.33
18697;BME280;22617;43.690;27.956;2023-08-01T16:01:07;98104.59;;;26.27;64.93
18697;BME280;22617;43.690;27.956;2023-08-01T16:06:12;98115.78;;;26.10;65.79
18697;BME280;22617;43.690;27.956;2023-08-01T16:11:16;98114.84;;;25.88;66.00
18697;BME280;22617;43.690;27.956;2023-08-01T16:16:20;98123.47;;;25.92;66.44
18697;BME280;22617;43.690;27.956;2023-08-01T16:21:25;98118.63;;;25.64;67.10
18697;BME280;22617;43.690;27.956;2023-08-01T16:26:29;98131.13;;;25.74;67.41
18697;BME280;22617;43.690;27.956;2023-08-01T16:31:32;98117.31;;;25.80;67.47
18697;BME280;22617;43.690;27.956;2023-08-01T16:36:37;98128.56;;;25.50;68.29
18697;BME280;22617;43.690;27.956;2023-08-01T16:41:41;98130.34;;;25.39;69.21
18697;BME280;22617;43.690;27.956;2023-08-01T16:46:45;98132.53;;;25.34;69.31
18697;BME280;22617;43.690;27.956;2023-08-01T16:51:50;98142.91;;;25.03;70.46
18697;BME280;22617;43.690;27.956;2023-08-01T16:56:53;98141.56;;;24.98;71.12
18697;BME280;22617;43.690;27.956;2023-08-01T17:01:57;98138.09;;;24.61;71.63
18697;BME280;22617;43.690;27.956;2023-08-01T17:07:02;98141.25;;;24.31;73.14
18697;BME280;22617;43.690;27.956;2023-08-01T17:12:07;98136.28;;;24.38;73.40
18697;BME280;22617;43.690;27.956;2023-08-01T17:17:11;98137.25;;;24.00;74.54
18697;BME280;22617;43.690;27.956;2023-08-01T17:22:16;98148.03;;;23.86;75.12
18697;BME280;22617;43.690;27.956;2023-08-01T17:27:19;98150.19;;;23.81;75.12
18697;BME280;22617;43.690;27.956;2023-08-01T17:32:23;98159.03;;;23.69;75.16
18697;BME280;22617;43.690;27.956;2023-08-01T17:37:28;98160.44;;;23.49;76.00
18697;BME280;22617;43.690;27.956;2023-08-01T17:42:31;98164.34;;;23.43;76.43
18697;BME280;22617;43.690;27.956;2023-08-01T17:47:35;98161.38;;;23.35;76.30
18697;BME280;22617;43.690;27.956;2023-08-01T17:52:40;98154.31;;;23.22;76.90
18697;BME280;22617;43.690;27.956;2023-08-01T17:57:44;98164.63;;;23.01;78.03
18697;BME280;22617;43.690;27.956;2023-08-01T18:02:49;98177.38;;;22.96;79.15
18697;BME280;22617;43.690;27.956;2023-08-01T18:07:54;98178.31;;;22.95;79.39
18697;BME280;22617;43.690;27.956;2023-08-01T18:12:57;98183.84;;;22.92;79.86
18697;BME280;22617;43.690;27.956;2023-08-01T18:18:01;98184.34;;;22.84;81.21
18697;BME280;22617;43.690;27.956;2023-08-01T18:23:10;98181.28;;;22.78;82.16
18697;BME280;22617;43.690;27.956;2023-08-01T18:28:13;98174.06;;;22.66;82.86
18697;BME280;22617;43.690;27.956;2023-08-01T18:33:17;98185.00;;;22.61;83.45
18697;BME280;22617;43.690;27.956;2023-08-01T18:38:22;98189.09;;;22.52;83.66
18697;BME280;22617;43.690;27.956;2023-08-01T18:43:26;98192.00;;;22.62;82.95
18697;BME280;22617;43.690;27.956;2023-08-01T18:48:29;98181.75;;;22.43;83.52
18697;BME280;22617;43.690;27.956;2023-08-01T18:53:34;98192.06;;;22.48;83.66
18697;BME280;22617;43.690;27.956;2023-08-01T18:58:38;98186.69;;;22.35;84.13
18697;BME280;22617;43.690;27.956;2023-08-01T19:03:43;98180.28;;;22.11;85.17
18697;BME280;22617;43.690;27.956;2023-08-01T19:08:48;98185.81;;;22.08;85.20
18697;BME280;22617;43.690;27.956;2023-08-01T19:14:03;98186.53;;;22.24;85.10
18697;BME280;22617;43.690;27.956;2023-08-01T19:19:07;98178.88;;;22.20;84.88
18697;BME280;22617;43.690;27.956;2023-08-01T19:24:13;98185.81;;;22.08;84.55
18697;BME280;22617;43.690;27.956;2023-08-01T19:29:17;98186.66;;;22.08;84.56
18697;BME280;22617;43.690;27.956;2023-08-01T19:34:21;98192.81;;;22.09;84.25
18697;BME280;22617;43.690;27.956;2023-08-01T19:39:26;98190.09;;;21.82;84.68
18697;BME280;22617;43.690;27.956;2023-08-01T19:44:30;98182.59;;;21.74;85.49
18697;BME280;22617;43.690;27.956;2023-08-01T19:49:34;98183.06;;;21.81;85.92
18697;BME280;22617;43.690;27.956;2023-08-01T19:54:39;98184.50;;;21.87;85.65
18697;BME280;22617;43.690;27.956;2023-08-01T19:59:43;98180.56;;;21.92;84.68
18697;BME280;22617;43.690;27.956;2023-08-01T20:04:50;98182.22;;;21.81;84.91
18697;BME280;22617;43.690;27.956;2023-08-01T20:09:55;98185.59;;;21.54;86.60
18697;BME280;22617;43.690;27.956;2023-08-01T20:14:58;98181.00;;;21.58;86.37
18697;BME280;22617;43.690;27.956;2023-08-01T20:20:06;98184.38;;;21.60;86.34
18697;BME280;22617;43.690;27.956;2023-08-01T20:25:13;98186.00;;;21.48;86.49
18697;BME280;22617;43.690;27.956;2023-08-01T20:30:16;98187.31;;;21.41;86.73
18697;BME280;22617;43.690;27.956;2023-08-01T20:35:21;98201.22;;;21.30;87.57
18697;BME280;22617;43.690;27.956;2023-08-01T20:40:25;98206.03;;;21.24;88.24
18697;BME280;22617;43.690;27.956;2023-08-01T20:45:29;98212.75;;;21.29;87.75
18697;BME280;22617;43.690;27.956;2023-08-01T20:50:33;98215.16;;;21.34;87.04
18697;BME280;22617;43.690;27.956;2023-08-01T20:55:38;98211.94;;;21.29;86.86
18697;BME280;22617;43.690;27.956;2023-08-01T21:00:41;98220.16;;;21.24;86.63
18697;BME280;22617;43.690;27.956;2023-08-01T21:05:45;98215.00;;;21.21;86.46
18697;BME280;22617;43.690;27.956;2023-08-01T21:10:50;98220.47;;;21.34;86.77
18697;BME280;22617;43.690;27.956;2023-08-01T21:15:53;98228.28;;;21.36;85.50
18697;BME280;22617;43.690;27.956;2023-08-01T21:20:57;98223.47;;;21.28;85.24
18697;BME280;22617;43.690;27.956;2023-08-01T21:26:02;98219.84;;;21.15;85.49
18697;BME280;22617;43.690;27.956;2023-08-01T21:31:06;98219.72;;;21.16;86.39
18697;BME280;22617;43.690;27.956;2023-08-01T21:36:13;98212.84;;;21.14;87.83
18697;BME280;22617;43.690;27.956;2023-08-01T21:41:18;98196.22;;;21.10;88.66
18697;BME280;22617;43.690;27.956;2023-08-01T21:46:22;98192.78;;;20.94;90.37
18697;BME280;22617;43.690;27.956;2023-08-01T21:51:27;98189.63;;;20.87;90.95
18697;BME280;22617;43.690;27.956;2023-08-01T21:56:32;98182.66;;;21.01;91.05
18697;BME280;22617;43.690;27.956;2023-08-01T22:01:35;98189.66;;;21.02;90.96
18697;BME280;22617;43.690;27.956;2023-08-01T22:06:39;98181.31;;;20.94;91.03
18697;BME280;22617;43.690;27.956;2023-08-01T22:11:44;98174.63;;;20.72;90.71
18697;BME280;22617;43.690;27.956;2023-08-01T22:16:48;98169.84;;;20.63;90.81
18697;BME280;22617;43.690;27.956;2023-08-01T22:21:51;98178.38;;;20.68;90.77
18697;BME280;22617;43.690;27.956;2023-08-01T22:26:56;98178.97;;;20.73;90.57
18697;BME280;22617;43.690;27.956;2023-08-01T22:32:00;98183.53;;;20.71;90.31
18697;BME280;22617;43.690;27.956;2023-08-01T22:37:04;98180.56;;;20.62;89.42
18697;BME280;22617;43.690;27.956;2023-08-01T22:42:09;98172.09;;;20.55;90.14
18697;BME280;22617;43.690;27.956;2023-08-01T22:47:12;98169.09;;;20.61;89.96
18697;BME280;22617;43.690;27.956;2023-08-01T22:52:16;98169.00;;;20.63;90.05
18697;BME280;22617;43.690;27.956;2023-08-01T22:57:21;98156.00;;;20.74;89.72
18697;BME280;22617;43.690;27.956;2023-08-01T23:02:24;98156.25;;;20.69;89.37
18697;BME280;22617;43.690;27.956;2023-08-01T23:07:28;98151.16;;;20.66;88.92
18697;BME280;22617;43.690;27.956;2023-08-01T23:12:34;98151.06;;;20.68;88.28
18697;BME280;22617;43.690;27.956;2023-08-01T23:17:38;98158.56;;;20.75;87.86
18697;BME280;22617;43.690;27.956;2023-08-01T23:22:41;98153.28;;;20.75;87.63
18697;BME280;22617;43.690;27.956;2023-08-01T23:27:46;98146.53;;;20.70;86.55
18697;BME280;22617;43.690;27.956;2023-08-01T23:32:52;98149.78;;;20.59;86.12
18697;BME280;22617;43.690;27.956;2023-08-01T23:37:55;98137.44;;;20.44;86.74
18697;BME280;22617;43.690;27.956;2023-08-01T23:43:02;98140.00;;;20.45;86.79
18697;BME280;22617;43.690;27.956;2023-08-01T23:48:05;98144.97;;;20.52;86.79
18697;BME280;22617;43.690;27.956;2023-08-01T23:53:09;98144.97;;;20.52;86.42
18697;BME280;22617;43.690;27.956;2023-08-01T23:58:14;98139.81;;;20.49;86.42
